Time;durP1;ratioP1;P1;durP2;ratioP2;P2;SDS_P1;SDS_P2;PMS_P1;PMS_P2;Temp;Humidity;BMP_temperature;BMP_pressure;BME280_temperature;BME280_humidity;BME280_pressure;Samples;Min_cycle;Max_cycle;Signal;HPM_P1;HPM_P2
2023/09/29 00:00:17;;;;;;;7.00;2.53;;;;;;;15.61;96.87;101481.63;4940274;28;20114;-80
2023/09/29 00:02:44;;;;;;;7.78;2.58;;;;;;;15.62;96.94;101480.72;4941806;28;20360;-81
2023/09/29 00:05:17;;;;;;;5.20;2.53;;;;;;;15.63;96.64;101482.44;4943382;29;20072;-81
2023/09/29 00:07:43;;;;;;;7.22;2.50;;;;;;;15.66;96.57;101480.63;4952987;28;20030;-81
2023/09/29 00:10:10;;;;;;;7.25;2.92;;;;;;;15.68;96.72;101484.03;4942920;28;20035;-81
2023/09/29 00:12:39;;;;;;;8.18;3.20;;;;;;;15.69;96.89;101480.50;4939655;29;20031;-81
2023/09/29 00:15:05;;;;;;;7.43;2.78;;;;;;;15.71;96.93;101478.69;4940491;28;20391;-81
2023/09/29 00:17:31;;;;;;;6.15;2.72;;;;;;;15.71;96.78;101468.19;4935396;29;20035;-80
2023/09/29 00:19:57;;;;;;;7.68;2.88;;;;;;;15.72;96.77;101475.13;4935184;29;20023;-80
2023/09/29 00:22:22;;;;;;;6.75;2.70;;;;;;;15.73;96.87;101482.94;4948344;29;20027;-81
2023/09/29 00:24:47;;;;;;;8.02;2.80;;;;;;;15.74;97.25;101476.78;4948516;29;20652;-80
2023/09/29 00:27:13;;;;;;;8.55;2.97;;;;;;;15.75;96.98;101475.00;4949322;29;20494;-81
2023/09/29 00:29:39;;;;;;;7.25;3.15;;;;;;;15.75;97.07;101472.38;4940824;29;20394;-81
2023/09/29 00:32:05;;;;;;;7.45;2.75;;;;;;;15.77;97.10;101478.44;4946859;28;20027;-81
2023/09/29 00:34:30;;;;;;;5.45;2.90;;;;;;;15.77;97.02;101475.81;4948909;29;20045;-81
2023/09/29 00:36:56;;;;;;;7.75;3.25;;;;;;;15.77;97.25;101473.19;4948365;28;20105;-81
2023/09/29 00:39:21;;;;;;;6.93;2.95;;;;;;;15.76;97.64;101468.84;4943556;29;20869;-81
2023/09/29 00:41:49;;;;;;;9.40;3.20;;;;;;;15.77;97.89;101467.94;4941843;29;20023;-81
2023/09/29 00:44:14;;;;;;;7.25;3.00;;;;;;;15.79;97.86;101474.00;4935657;29;20020;-81
2023/09/29 00:46:39;;;;;;;7.00;3.05;;;;;;;15.79;97.78;101463.50;4934632;29;20383;-81
2023/09/29 00:49:05;;;;;;;7.63;3.10;;;;;;;15.80;97.94;101454.72;4937318;29;20035;-81
2023/09/29 00:51:31;;;;;;;6.82;3.13;;;;;;;15.81;98.16;101452.94;4951637;29;20063;-81
2023/09/29 00:53:57;;;;;;;7.55;3.20;;;;;;;15.81;98.30;101464.31;4952412;28;20450;-81
2023/09/29 00:56:22;;;;;;;7.35;3.08;;;;;;;15.82;98.04;101455.53;4952807;29;20102;-81
2023/09/29 00:58:48;;;;;;;9.15;3.40;;;;;;;15.84;98.67;101452.81;4952327;29;20072;-81
2023/09/29 01:01:14;;;;;;;7.40;3.20;;;;;;;15.85;98.49;101447.56;4951277;28;20028;-81
2023/09/29 01:03:39;;;;;;;7.97;2.85;;;;;;;15.86;98.25;101451.91;4935352;29;20024;-81
2023/09/29 01:06:08;;;;;;;7.95;3.20;;;;;;;15.86;98.73;101449.28;4935629;29;20036;-81
2023/09/29 01:08:33;;;;;;;7.93;3.17;;;;;;;15.86;98.28;101456.28;4952389;28;20031;-81
2023/09/29 01:10:58;;;;;;;9.48;3.13;;;;;;;15.89;98.48;101453.53;4952575;28;20082;-81
2023/09/29 01:13:24;;;;;;;6.65;3.08;;;;;;;15.89;98.41;101449.13;4952642;28;20513;-81
2023/09/29 01:15:49;;;;;;;6.50;2.97;;;;;;;15.89;98.32;101448.28;4946335;29;20031;-81
2023/09/29 01:18:16;;;;;;;6.20;3.10;;;;;;;15.91;98.58;101449.94;4934628;29;20494;-81
2023/09/29 01:20:41;;;;;;;6.60;3.50;;;;;;;15.90;98.23;101442.97;4935005;29;20055;-80
2023/09/29 01:23:07;;;;;;;5.75;3.08;;;;;;;15.92;98.15;101446.41;4949888;28;20534;-81
2023/09/29 01:25:33;;;;;;;6.75;2.72;;;;;;;15.92;98.03;101441.16;4952332;28;20038;-80
2023/09/29 01:28:01;;;;;;;5.72;3.13;;;;;;;15.93;98.07;101442.03;4935578;28;20050;-81
2023/09/29 01:30:27;;;;;;;5.28;2.90;;;;;;;15.95;98.42;101439.31;4947863;28;20037;-81
2023/09/29 01:32:56;;;;;;;4.78;2.40;;;;;;;15.95;98.19;101429.69;4951787;28;20027;-81
2023/09/29 01:35:23;;;;;;;6.07;3.05;;;;;;;15.97;97.89;101429.63;4953645;28;20499;-81
2023/09/29 01:37:51;;;;;;;4.82;3.00;;;;;;;15.97;97.94;101422.59;4954664;29;20038;-81
2023/09/29 01:40:23;;;;;;;4.35;2.60;;;;;;;15.98;97.79;101412.97;4944136;29;20062;-81
2023/09/29 01:42:50;;;;;;;5.30;2.50;;;;;;;15.99;97.61;101417.31;4937684;29;20038;-81
2023/09/29 01:45:16;;;;;;;5.43;2.60;;;;;;;15.98;97.62;101403.31;4937816;29;20034;-81
2023/09/29 01:47:45;;;;;;;5.82;2.40;;;;;;;16.00;97.67;101408.53;4937491;29;20045;-81
2023/09/29 01:50:14;;;;;;;5.10;2.47;;;;;;;15.99;97.49;101405.03;4941836;29;20020;-81
2023/09/29 01:52:41;;;;;;;4.82;2.50;;;;;;;16.01;97.39;101407.59;4952973;29;20471;-81
2023/09/29 01:55:08;;;;;;;5.28;2.50;;;;;;;16.00;97.46;101411.16;4955071;28;20479;-80
2023/09/29 01:57:34;;;;;;;4.45;2.38;;;;;;;15.99;97.21;101397.16;4941565;29;20459;-81
2023/09/29 01:59:59;;;;;;;5.72;2.45;;;;;;;16.00;97.20;101392.78;4943502;29;20056;-81
2023/09/29 02:02:24;;;;;;;4.13;2.10;;;;;;;16.01;97.05;101391.84;4937363;29;20027;-81
2023/09/29 02:04:52;;;;;;;5.60;2.30;;;;;;;16.02;96.82;101397.03;4937312;29;20032;-81
2023/09/29 02:07:17;;;;;;;4.88;2.25;;;;;;;16.02;96.57;101383.91;4954185;29;20471;-81
2023/09/29 02:09:43;;;;;;;3.70;2.05;;;;;;;16.04;96.28;101378.63;4937396;29;20034;-80
2023/09/29 02:12:09;;;;;;;4.35;2.20;;;;;;;16.05;96.42;101389.03;4948021;29;20117;-81
2023/09/29 02:14:35;;;;;;;3.85;2.08;;;;;;;16.06;96.10;101384.63;4945008;28;20108;-81
2023/09/29 02:17:00;;;;;;;5.40;2.28;;;;;;;16.06;96.06;101382.00;4941453;28;20036;-81
2023/09/29 02:19:25;;;;;;;3.70;2.03;;;;;;;16.07;95.47;101370.59;4946731;29;20026;-81
2023/09/29 02:21:51;;;;;;;4.25;2.20;;;;;;;16.09;95.41;101379.25;4948702;29;20182;-81
2023/09/29 02:24:16;;;;;;;5.28;2.50;;;;;;;16.09;95.39;101368.78;4946724;28;20513;-81
2023/09/29 02:26:41;;;;;;;4.40;2.50;;;;;;;16.10;95.05;101373.09;4946275;29;20023;-81
2023/09/29 02:29:09;;;;;;;4.63;2.13;;;;;;;16.12;94.79;101373.91;4950063;28;20019;-81
2023/09/29 02:31:36;;;;;;;3.97;2.13;;;;;;;16.13;94.45;101374.78;4936792;29;20038;-81
2023/09/29 02:34:02;;;;;;;5.35;2.35;;;;;;;16.14;94.31;101372.06;4942787;28;20071;-81
2023/09/29 02:36:27;;;;;;;6.43;2.20;;;;;;;16.18;94.24;101367.53;4953187;29;20364;-81
2023/09/29 02:38:53;;;;;;;4.70;2.35;;;;;;;16.17;94.32;101360.59;4940186;28;20066;-81
2023/09/29 02:41:20;;;;;;;4.68;2.13;;;;;;;16.17;94.04;101358.81;4937774;29;20031;-81
2023/09/29 02:43:45;;;;;;;2.70;2.00;;;;;;;16.19;93.96;101359.63;4942396;29;20107;-81
2023/09/29 02:46:17;;;;;;;4.60;2.08;;;;;;;16.22;93.73;101370.00;4954565;28;20469;-81
2023/09/29 02:48:42;;;;;;;4.80;2.20;;;;;;;16.24;93.42;101359.41;4953331;28;20050;-81
2023/09/29 02:51:18;;;;;;;4.00;2.05;;;;;;;16.28;93.55;101358.38;4940088;29;20479;-81
2023/09/29 02:53:43;;;;;;;4.88;2.08;;;;;;;16.28;93.36;101352.25;4938840;29;20028;-81
2023/09/29 02:56:10;;;;;;;4.53;2.20;;;;;;;16.31;93.54;101352.16;4936149;29;20122;-81
2023/09/29 02:58:35;;;;;;;4.20;2.00;;;;;;;16.30;93.60;101346.06;4939621;29;20320;-81
2023/09/29 03:01:01;;;;;;;3.40;2.10;;;;;;;16.32;93.37;101345.97;4948182;28;20024;-81
2023/09/29 03:03:26;;;;;;;4.47;2.10;;;;;;;16.33;93.52;101345.06;4939150;29;20478;-81
2023/09/29 03:05:53;;;;;;;3.47;2.10;;;;;;;16.33;93.30;101335.41;4953646;29;20034;-81
2023/09/29 03:08:18;;;;;;;3.50;2.00;;;;;;;16.33;93.76;101330.16;4955074;28;20031;-81
2023/09/29 03:10:44;;;;;;;3.85;2.13;;;;;;;16.36;93.70;101329.19;4955142;28;20034;-81
2023/09/29 03:13:09;;;;;;;3.83;1.83;;;;;;;16.36;93.16;101327.41;4949655;28;20491;-81
2023/09/29 03:15:35;;;;;;;4.45;1.83;;;;;;;16.39;93.81;101329.06;4935939;29;20027;-81
2023/09/29 03:18:01;;;;;;;3.90;1.70;;;;;;;16.40;93.75;101330.72;4937206;29;20028;-81
2023/09/29 03:20:27;;;;;;;3.85;1.83;;;;;;;16.42;93.93;101323.66;4945877;29;20102;-81
2023/09/29 03:22:52;;;;;;;3.08;1.90;;;;;;;16.44;94.21;101332.31;4954781;28;20039;-81
2023/09/29 03:25:19;;;;;;;3.92;1.80;;;;;;;16.45;94.04;101328.78;4954442;29;20061;-81
2023/09/29 03:27:45;;;;;;;3.25;1.70;;;;;;;16.47;94.65;101324.31;4947776;29;20034;-81
2023/09/29 03:30:10;;;;;;;2.75;1.80;;;;;;;16.50;94.71;101316.31;4946049;28;20027;-81
2023/09/29 03:32:35;;;;;;;3.15;1.70;;;;;;;16.52;94.77;101318.84;4935566;29;20412;-81
2023/09/29 03:35:01;;;;;;;3.38;1.80;;;;;;;16.53;94.58;101316.19;4951436;29;20071;-81
2023/09/29 03:37:29;;;;;;;3.90;1.80;;;;;;;16.54;94.95;101307.38;4951360;29;20110;-81
2023/09/29 03:39:55;;;;;;;3.08;1.80;;;;;;;16.55;94.88;101310.84;4935453;29;20493;-81
2023/09/29 03:42:20;;;;;;;5.53;2.05;;;;;;;16.55;95.20;101302.97;4936188;29;20115;-81
2023/09/29 03:44:46;;;;;;;4.72;1.95;;;;;;;16.56;94.92;101302.06;4948728;29;20102;-81
2023/09/29 03:47:12;;;;;;;3.55;1.85;;;;;;;16.56;95.54;101307.31;4952683;28;20352;-81
2023/09/29 03:49:38;;;;;;;3.90;1.77;;;;;;;16.56;95.44;101288.91;4954497;28;20026;-81
2023/09/29 03:52:06;;;;;;;3.08;1.63;;;;;;;16.54;95.47;101283.75;4954353;28;20086;-81
2023/09/29 03:54:32;;;;;;;3.10;1.75;;;;;;;16.54;96.08;101270.63;4946161;28;20042;-81
2023/09/29 03:56:58;;;;;;;3.85;1.80;;;;;;;16.53;96.31;101278.53;4947797;28;20031;-81
2023/09/29 03:59:24;;;;;;;2.63;1.70;;;;;;;16.54;96.03;101281.13;4934271;29;20027;-81
2023/09/29 04:01:50;;;;;;;2.22;1.65;;;;;;;16.56;96.16;101277.56;4951479;29;20034;-81
2023/09/29 04:04:15;;;;;;;3.13;1.80;;;;;;;16.57;96.47;101279.28;4954068;29;20019;-81
2023/09/29 04:06:40;;;;;;;2.22;1.83;;;;;;;16.57;96.76;101276.66;4954218;28;20019;-81
2023/09/29 04:09:06;;;;;;;3.08;1.60;;;;;;;16.57;96.41;101271.41;4951622;29;20027;-81
2023/09/29 04:11:31;;;;;;;3.38;1.63;;;;;;;16.56;96.19;101267.06;4950902;29;20110;-81
2023/09/29 04:13:56;;;;;;;4.07;1.85;;;;;;;16.56;96.84;101262.66;4951647;28;20114;-81
2023/09/29 04:16:22;;;;;;;2.78;1.80;;;;;;;16.56;96.79;101256.56;4951790;29;20031;-81
2023/09/29 04:18:47;;;;;;;4.35;1.85;;;;;;;16.55;96.78;101263.56;4949991;28;20023;-81
2023/09/29 04:21:14;;;;;;;3.20;1.80;;;;;;;16.54;97.20;101268.00;4948749;29;20510;-81
2023/09/29 04:23:40;;;;;;;3.45;1.85;;;;;;;16.56;97.48;101267.06;4951201;29;20485;-81
2023/09/29 04:26:18;;;;;;;3.70;1.77;;;;;;;16.54;97.46;101270.63;4949669;29;20023;-81
2023/09/29 04:28:44;;;;;;;2.90;1.80;;;;;;;16.58;97.67;101267.81;4950387;29;20034;-81
2023/09/29 04:31:10;;;;;;;2.72;1.73;;;;;;;16.59;97.41;101261.66;4951498;28;20031;-81
2023/09/29 04:33:35;;;;;;;3.85;2.00;;;;;;;16.62;97.56;101256.28;4947931;28;20051;-81
2023/09/29 04:36:00;;;;;;;3.95;1.90;;;;;;;16.61;97.53;101244.06;4950451;28;20034;-81
2023/09/29 04:38:26;;;;;;;2.63;1.60;;;;;;;16.61;97.68;101250.19;4949916;29;20106;-81
2023/09/29 04:40:51;;;;;;;5.82;1.85;;;;;;;16.63;97.87;101248.34;4945678;29;20367;-81
2023/09/29 04:43:18;;;;;;;4.85;2.22;;;;;;;16.63;97.67;101248.34;4950289;28;20058;-81
2023/09/29 04:45:43;;;;;;;3.40;2.00;;;;;;;16.65;98.20;101250.88;4948333;29;20521;-81
2023/09/29 04:48:09;;;;;;;5.93;2.10;;;;;;;16.67;97.84;101249.03;4951673;29;20036;-81
2023/09/29 04:50:34;;;;;;;3.78;2.00;;;;;;;16.67;98.35;101238.53;4947835;28;20042;-81
2023/09/29 04:52:59;;;;;;;2.47;1.70;;;;;;;16.69;98.67;101236.69;4944224;29;20023;-81
2023/09/29 04:55:24;;;;;;;3.45;1.70;;;;;;;16.71;98.86;101236.63;4949663;29;20043;-81
2023/09/29 04:57:52;;;;;;;3.17;1.73;;;;;;;16.72;98.57;101231.31;4949154;29;20490;-81
2023/09/29 05:00:17;;;;;;;2.55;1.98;;;;;;;16.74;98.80;101228.59;4944961;28;20476;-81
2023/09/29 05:02:42;;;;;;;4.95;1.85;;;;;;;16.74;98.97;101234.69;4945699;28;20031;-81
2023/09/29 05:05:08;;;;;;;2.97;2.13;;;;;;;16.77;98.72;101233.72;4945329;29;20111;-81
2023/09/29 05:07:34;;;;;;;3.85;2.05;;;;;;;16.78;99.24;101238.91;4946062;29;20079;-81
2023/09/29 05:09:59;;;;;;;3.03;2.00;;;;;;;16.77;99.08;101245.06;4950870;28;20051;-81
2023/09/29 05:12:25;;;;;;;3.92;1.90;;;;;;;16.77;99.07;101237.19;4951914;28;20042;-81
2023/09/29 05:14:50;;;;;;;6.28;2.20;;;;;;;16.77;99.32;101226.69;4953164;29;20019;-81
2023/09/29 05:17:15;;;;;;;5.93;2.30;;;;;;;16.78;99.42;101224.91;4951646;29;20027;-81
2023/09/29 05:19:40;;;;;;;4.10;1.98;;;;;;;16.78;99.22;101230.16;4943338;29;20446;-81
2023/09/29 05:22:06;;;;;;;4.32;1.92;;;;;;;16.78;99.60;101231.00;4955910;29;20031;-81
2023/09/29 05:24:31;;;;;;;4.85;2.00;;;;;;;16.77;99.78;101221.41;4955535;28;20027;-81
2023/09/29 05:26:57;;;;;;;3.80;2.08;;;;;;;16.77;99.75;101218.78;4956164;29;20015;-81
2023/09/29 05:29:22;;;;;;;3.55;2.00;;;;;;;16.77;99.72;101218.78;4956856;29;20034;-81
2023/09/29 05:31:47;;;;;;;3.05;2.13;;;;;;;16.77;100.00;101212.69;4946924;29;20034;-81
2023/09/29 05:34:13;;;;;;;3.33;2.00;;;;;;;16.77;100.00;101212.69;4938285;29;20040;-81
2023/09/29 05:36:38;;;;;;;2.60;1.88;;;;;;;16.78;100.00;101215.25;4948780;29;20584;-81
2023/09/29 05:39:04;;;;;;;4.70;2.10;;;;;;;16.79;100.00;101224.00;4953074;29;20034;-81
2023/09/29 05:41:29;;;;;;;4.57;1.95;;;;;;;16.79;100.00;101216.13;4950520;29;20577;-81
2023/09/29 05:43:55;;;;;;;2.47;1.75;;;;;;;16.79;100.00;101218.75;4954585;28;20019;-81
2023/09/29 05:46:20;;;;;;;3.58;2.13;;;;;;;16.79;100.00;101211.69;4948497;29;20027;-81
2023/09/29 05:48:46;;;;;;;3.35;2.00;;;;;;;16.80;100.00;101216.03;4953141;28;20126;-81
2023/09/29 05:51:11;;;;;;;3.72;2.00;;;;;;;16.80;100.00;101207.31;4937435;29;20024;-81
2023/09/29 05:53:36;;;;;;;3.08;1.90;;;;;;;16.81;100.00;101223.00;4941465;29;20019;-81
2023/09/29 05:56:08;;;;;;;4.82;2.00;;;;;;;16.82;100.00;101211.56;4943081;29;20069;-81
2023/09/29 05:58:33;;;;;;;;;;;;;;;16.85;99.32;101221.06;4950181;29;20023;-81
2023/09/29 06:01:07;;;;;;;2.88;1.70;;;;;;;16.83;100.00;101218.53;4943370;29;19925;-81
2023/09/29 06:03:33;;;;;;;3.30;1.80;;;;;;;16.84;100.00;101217.59;4955035;28;20004;-81
2023/09/29 06:05:58;;;;;;;4.65;1.90;;;;;;;16.86;100.00;101220.16;4945635;29;20123;-81
2023/09/29 06:08:24;;;;;;;2.33;1.60;;;;;;;16.86;100.00;101214.06;4950981;28;20033;-81
2023/09/29 06:10:49;;;;;;;2.50;1.70;;;;;;;16.87;100.00;101213.97;4949047;29;20040;-81
2023/09/29 06:13:14;;;;;;;2.33;1.85;;;;;;;16.89;100.00;101211.28;4951147;28;20015;-81
2023/09/29 06:15:39;;;;;;;2.38;1.63;;;;;;;16.91;100.00;101212.91;4950936;29;20031;-81
2023/09/29 06:18:05;;;;;;;3.25;2.00;;;;;;;16.93;100.00;101208.44;4952980;29;20027;-81
2023/09/29 06:20:30;;;;;;;2.97;1.92;;;;;;;16.95;100.00;101213.66;4944797;29;20038;-81
2023/09/29 06:22:55;;;;;;;3.90;2.00;;;;;;;16.99;100.00;101218.69;4954493;28;20030;-81
2023/09/29 06:25:21;;;;;;;3.25;1.88;;;;;;;17.02;100.00;101228.22;4955729;29;20034;-81
2023/09/29 06:27:46;;;;;;;2.58;1.80;;;;;;;17.06;100.00;101229.78;4954601;29;20487;-81
2023/09/29 06:30:11;;;;;;;2.78;1.65;;;;;;;17.08;100.00;101230.53;4943279;29;20027;-81
2023/09/29 06:32:37;;;;;;;2.78;1.70;;;;;;;17.12;100.00;101226.00;4937998;29;20074;-81
2023/09/29 06:35:02;;;;;;;1.90;1.58;;;;;;;17.14;100.00;101219.75;4937714;29;20495;-81
2023/09/29 06:37:28;;;;;;;3.83;1.85;;;;;;;17.16;100.00;101214.44;4947400;28;20403;-81
2023/09/29 06:39:53;;;;;;;4.53;1.70;;;;;;;17.18;100.00;101217.81;4945693;28;20094;-81
2023/09/29 06:42:18;;;;;;;3.85;1.88;;;;;;;17.19;100.00;101221.31;4952138;28;20082;-81
2023/09/29 06:44:44;;;;;;;5.95;1.90;;;;;;;17.22;100.00;101223.81;4949338;29;20033;-81
2023/09/29 06:47:09;;;;;;;4.70;1.90;;;;;;;17.25;100.00;101221.88;4947886;28;20027;-81
2023/09/29 06:49:34;;;;;;;4.45;2.08;;;;;;;17.27;100.00;101227.03;4946795;29;20110;-81
2023/09/29 06:51:59;;;;;;;3.40;2.05;;;;;;;17.30;100.00;101226.91;4950090;29;20447;-81
2023/09/29 06:54:25;;;;;;;2.40;1.80;;;;;;;17.33;100.00;101233.81;4952656;28;20035;-80
2023/09/29 06:56:50;;;;;;;4.93;1.92;;;;;;;17.34;100.00;101235.47;4950352;29;20031;-81
2023/09/29 06:59:15;;;;;;;2.55;1.60;;;;;;;17.34;100.00;101236.34;4952836;29;20035;-81
2023/09/29 07:01:41;;;;;;;4.00;2.05;;;;;;;17.36;100.00;101237.13;4949140;29;20027;-81
2023/09/29 07:04:06;;;;;;;3.55;1.80;;;;;;;17.36;100.00;101237.13;4951741;29;20027;-81
2023/09/29 07:06:31;;;;;;;2.85;1.80;;;;;;;17.39;100.00;101244.88;4952415;29;20027;-81
2023/09/29 07:08:56;;;;;;;3.38;1.88;;;;;;;17.38;100.00;101240.53;4948731;29;20128;-81
2023/09/29 07:11:22;;;;;;;4.13;2.00;;;;;;;17.39;100.00;101242.25;4949252;29;20031;-81
2023/09/29 07:13:47;;;;;;;2.97;1.98;;;;;;;17.41;100.00;101243.03;4939295;29;20039;-81
2023/09/29 07:16:13;;;;;;;3.55;1.77;;;;;;;17.41;100.00;101245.66;4942398;29;20035;-81
2023/09/29 07:18:38;;;;;;;4.07;2.03;;;;;;;17.43;100.00;101242.94;4950932;28;20129;-80
2023/09/29 07:21:04;;;;;;;3.03;1.88;;;;;;;17.43;100.00;101249.03;4950949;29;20543;-80
2023/09/29 07:23:33;;;;;;;3.33;1.77;;;;;;;17.45;100.00;101252.47;4945805;29;20027;-81
2023/09/29 07:25:59;;;;;;;3.60;1.85;;;;;;;17.51;100.00;101250.47;4946589;29;20062;-81
2023/09/29 07:28:24;;;;;;;3.08;1.88;;;;;;;17.54;100.00;101251.16;4949718;28;20435;-81
2023/09/29 07:30:52;;;;;;;2.70;1.88;;;;;;;17.57;100.00;101247.56;4950512;29;20490;-81
2023/09/29 07:33:18;;;;;;;3.33;2.00;;;;;;;17.59;100.00;101248.31;4945650;28;20074;-81
2023/09/29 07:35:44;;;;;;;3.03;1.90;;;;;;;17.63;100.00;101255.13;4948435;29;20047;-81
2023/09/29 07:38:10;;;;;;;3.08;1.90;;;;;;;17.67;100.00;101261.09;4945122;29;20114;-81
2023/09/29 07:40:35;;;;;;;2.30;1.70;;;;;;;17.72;100.00;101256.44;4945051;29;20463;-81
2023/09/29 07:43:01;;;;;;;2.15;1.67;;;;;;;17.80;100.00;101250.81;4944783;29;20106;-81
2023/09/29 07:45:27;;;;;;;3.55;2.00;;;;;;;17.85;100.00;101256.69;4940879;29;20055;-81
2023/09/29 07:47:52;;;;;;;4.35;2.45;;;;;;;17.91;100.00;101259.03;4939713;29;20058;-81
2023/09/29 07:50:19;;;;;;;2.60;1.70;;;;;;;17.96;100.00;101264.91;4944577;29;20027;-81
2023/09/29 07:52:44;;;;;;;2.63;1.70;;;;;;;18.02;100.00;101262.00;4945276;29;20034;-80
2023/09/29 07:55:13;;;;;;;3.95;1.83;;;;;;;18.12;100.00;101259.75;4940271;29;20031;-82
2023/09/29 07:57:39;;;;;;;5.00;2.08;;;;;;;18.21;100.00;101266.34;4946970;29;20039;-82
2023/09/29 08:00:05;;;;;;;3.65;1.77;;;;;;;18.28;100.00;101267.72;4945794;28;20383;-81
2023/09/29 08:02:30;;;;;;;2.35;1.70;;;;;;;18.33;98.81;101265.69;4946990;28;20035;-82
2023/09/29 08:04:57;;;;;;;3.58;1.80;;;;;;;18.40;98.88;101265.38;4949048;29;20027;-81
2023/09/29 08:07:22;;;;;;;3.13;1.80;;;;;;;18.46;98.07;101270.31;4946472;28;20027;-81
2023/09/29 08:09:52;;;;;;;2.83;1.67;;;;;;;18.53;98.31;101271.72;4947836;28;20054;-82
2023/09/29 08:12:18;;;;;;;3.13;1.52;;;;;;;18.60;97.41;101272.25;4945708;28;20153;-82
2023/09/29 08:14:43;;;;;;;3.00;1.85;;;;;;;18.67;97.55;101281.53;4942152;28;20134;-82
2023/09/29 08:17:09;;;;;;;3.80;1.70;;;;;;;18.74;96.88;101274.16;4945187;28;20467;-82
2023/09/29 08:19:35;;;;;;;2.25;1.50;;;;;;;18.79;96.35;101286.16;4948422;29;20038;-82
2023/09/29 08:22:02;;;;;;;3.17;1.52;;;;;;;18.86;96.35;101286.66;4949532;29;20039;-82
2023/09/29 08:24:27;;;;;;;3.28;1.48;;;;;;;18.93;95.09;101280.13;4948234;29;20475;-80
2023/09/29 08:26:53;;;;;;;4.88;1.60;;;;;;;19.00;94.53;101285.09;4946156;29;20113;-80
2023/09/29 08:29:18;;;;;;;2.72;1.40;;;;;;;19.05;95.70;101283.91;4944863;29;20037;-80
2023/09/29 08:31:44;;;;;;;4.07;1.77;;;;;;;19.09;93.93;101293.34;4950735;29;20483;-80
2023/09/29 08:34:09;;;;;;;4.47;2.30;;;;;;;19.14;94.58;101286.97;4942774;28;20157;-81
2023/09/29 08:36:34;;;;;;;3.03;1.60;;;;;;;19.16;92.92;101307.06;4946765;28;20031;-80
2023/09/29 08:39:00;;;;;;;3.13;1.67;;;;;;;19.19;93.16;101301.63;4947656;29;20064;-80
2023/09/29 08:41:27;;;;;;;4.07;1.92;;;;;;;19.23;92.60;101308.44;4949129;28;20031;-80
2023/09/29 08:43:52;;;;;;;4.20;1.88;;;;;;;19.29;92.70;101301.97;4947197;28;20077;-81
2023/09/29 08:46:20;;;;;;;4.50;1.95;;;;;;;19.34;91.81;101299.06;4949200;29;20824;-80
2023/09/29 08:48:47;;;;;;;7.22;1.80;;;;;;;19.37;91.23;101317.38;4944003;29;20055;-80
2023/09/29 08:51:15;;;;;;;2.60;1.48;;;;;;;19.42;91.70;101307.41;4944301;29;20399;-80
2023/09/29 08:53:42;;;;;;;3.80;1.70;;;;;;;19.46;91.38;101314.22;4948489;29;20073;-81
2023/09/29 08:56:11;;;;;;;5.55;1.88;;;;;;;19.50;90.72;101314.91;4950268;28;20028;-81
2023/09/29 08:58:37;;;;;;;7.75;1.90;;;;;;;19.57;91.17;101316.25;4946731;28;20027;-82
2023/09/29 09:01:03;;;;;;;8.38;2.00;;;;;;;19.60;90.98;101317.88;4948672;28;20034;-82
2023/09/29 09:03:28;;;;;;;5.95;1.80;;;;;;;19.64;90.18;101322.06;4942770;29;20441;-83
2023/09/29 09:05:55;;;;;;;5.75;1.77;;;;;;;19.67;90.48;101329.78;4949688;28;20031;-82
2023/09/29 09:08:21;;;;;;;6.28;1.90;;;;;;;19.72;89.81;101335.66;4947415;29;20459;-83
2023/09/29 09:10:46;;;;;;;5.80;2.00;;;;;;;19.76;90.42;101326.63;4947536;29;20070;-82
2023/09/29 09:13:11;;;;;;;5.25;1.92;;;;;;;19.78;88.47;101324.75;4945116;28;20468;-83
2023/09/29 09:15:37;;;;;;;6.50;1.95;;;;;;;19.78;88.91;101330.03;4944099;29;20050;-82
2023/09/29 09:18:03;;;;;;;8.52;2.30;;;;;;;19.80;89.40;101333.44;4944053;29;20305;-83
2023/09/29 09:20:29;;;;;;;5.07;1.95;;;;;;;19.88;88.62;101334.81;4949073;28;20062;-83
2023/09/29 09:23:02;;;;;;;6.53;2.10;;;;;;;19.91;88.81;101340.75;4955672;28;20027;-83
2023/09/29 09:25:46;;;;;;;11.02;2.30;;;;;;;19.95;89.06;101333.53;4948857;28;20031;-83
2023/09/29 09:28:19;;;;;;;6.50;2.00;;;;;;;20.00;88.25;101339.38;4948954;29;20027;-83
2023/09/29 09:30:46;;;;;;;3.92;1.65;;;;;;;20.02;87.98;101350.72;4945790;29;20390;-83
2023/09/29 09:33:21;;;;;;;8.45;2.08;;;;;;;20.05;87.17;101344.41;4943449;29;20031;-82
2023/09/29 09:35:46;;;;;;;7.43;1.98;;;;;;;20.04;87.14;101351.47;4945698;29;20054;-83
2023/09/29 09:38:11;;;;;;;7.38;1.55;;;;;;;20.04;87.19;101353.28;4954645;29;20091;-83
2023/09/29 09:40:37;;;;;;;5.60;2.10;;;;;;;20.02;86.77;101363.91;4950183;29;20379;-83
2023/09/29 09:43:10;;;;;;;5.63;2.00;;;;;;;19.97;87.86;101372.09;4948832;28;20129;-83
2023/09/29 09:45:39;;;;;;;3.15;1.65;;;;;;;19.91;88.74;101371.59;4952044;29;20030;-83
2023/09/29 09:48:09;;;;;;;5.50;2.08;;;;;;;19.82;89.29;101368.50;4950360;28;20027;-82
2023/09/29 09:50:38;;;;;;;6.45;1.90;;;;;;;19.75;90.74;101372.44;4952431;29;20042;-82
2023/09/29 09:53:08;;;;;;;5.82;2.05;;;;;;;19.69;91.85;101375.41;4948420;28;20038;-82
2023/09/29 09:55:39;;;;;;;5.68;1.88;;;;;;;19.64;92.07;101372.22;4949294;29;20384;-82
2023/09/29 09:58:13;;;;;;;5.40;1.85;;;;;;;19.61;92.81;101369.72;4948781;28;20491;-82
2023/09/29 10:00:42;;;;;;;7.88;1.88;;;;;;;19.63;92.99;101378.41;4947615;29;20030;-83
2023/09/29 10:03:16;;;;;;;4.53;1.83;;;;;;;19.67;92.79;101377.28;4950179;28;20038;-82
2023/09/29 10:05:51;;;;;;;7.63;1.90;;;;;;;19.69;92.40;101378.06;4943690;29;20378;-82
2023/09/29 10:08:37;;;;;;;6.15;1.95;;;;;;;19.73;92.14;101384.88;4947907;29;20494;-82
2023/09/29 10:11:11;;;;;;;7.97;2.20;;;;;;;19.75;91.95;101383.00;4944886;29;20498;-82
2023/09/29 10:13:37;;;;;;;4.18;1.70;;;;;;;19.78;90.75;101387.25;4945797;29;20039;-82
2023/09/29 10:16:05;;;;;;;5.45;1.85;;;;;;;19.80;89.79;101380.97;4946651;29;20050;-82
2023/09/29 10:18:32;;;;;;;3.95;1.83;;;;;;;19.84;89.65;101381.63;4946781;29;20077;-82
2023/09/29 10:21:05;;;;;;;3.88;1.70;;;;;;;19.90;90.52;101380.47;4948152;29;20034;-82
2023/09/29 10:23:42;;;;;;;2.60;1.52;;;;;;;19.95;88.84;101389.00;4948421;28;20070;-82
2023/09/29 10:26:10;;;;;;;3.75;1.88;;;;;;;19.95;88.73;101396.91;4954938;28;20391;-82
2023/09/29 10:28:36;;;;;;;4.75;1.90;;;;;;;19.96;89.14;101394.16;4950978;29;20479;-83
2023/09/29 10:31:15;;;;;;;5.15;1.60;;;;;;;19.98;89.11;101394.94;4953145;29;20054;-82
2023/09/29 10:34:17;;;;;;;6.15;2.00;;;;;;;20.00;89.39;101397.47;4948715;28;20035;-82
2023/09/29 10:36:42;;;;;;;5.78;1.60;;;;;;;19.99;88.95;101403.69;4935317;29;20054;-82
2023/09/29 10:39:07;;;;;;;3.42;1.80;;;;;;;19.99;88.82;101398.41;4948061;29;20074;-81
2023/09/29 10:41:34;;;;;;;5.75;1.70;;;;;;;20.01;88.60;101401.81;4943966;29;20027;-81
2023/09/29 10:44:00;;;;;;;7.78;2.08;;;;;;;20.00;87.94;101402.75;4947293;28;20148;-83
2023/09/29 10:46:26;;;;;;;3.55;1.67;;;;;;;20.01;88.83;101407.09;4946068;28;20483;-81
2023/09/29 10:48:53;;;;;;;4.90;2.10;;;;;;;20.03;89.07;101407.88;4948068;28;20042;-81
2023/09/29 10:51:24;;;;;;;4.20;1.70;;;;;;;20.00;88.92;101410.69;4948073;29;20024;-81
2023/09/29 10:53:50;;;;;;;5.13;1.92;;;;;;;19.96;88.52;101406.53;4950344;28;20110;-82
2023/09/29 10:56:24;;;;;;;5.30;1.83;;;;;;;19.93;89.27;101412.00;4949413;28;20070;-82
2023/09/29 10:58:52;;;;;;;4.43;1.70;;;;;;;19.87;89.22;101421.13;4946231;28;20108;-82
2023/09/29 11:01:32;;;;;;;5.07;1.95;;;;;;;19.83;89.86;101425.66;4951941;29;20031;-82
2023/09/29 11:03:58;;;;;;;4.95;1.85;;;;;;;19.80;90.03;101427.63;4945476;29;20419;-82
2023/09/29 11:06:23;;;;;;;5.20;1.70;;;;;;;19.78;89.28;101430.38;4943801;29;20031;-82
2023/09/29 11:08:59;;;;;;;5.15;1.90;;;;;;;19.76;89.40;101436.66;4943407;28;20026;-82
2023/09/29 11:11:26;;;;;;;4.50;1.70;;;;;;;19.73;90.04;101431.56;4941794;29;20388;-83
2023/09/29 11:13:56;;;;;;;4.05;1.63;;;;;;;19.73;89.36;101436.84;4947377;28;20019;-81
2023/09/29 11:16:24;;;;;;;9.52;1.73;;;;;;;19.73;89.76;101437.69;4949970;29;20034;-81
2023/09/29 11:18:52;;;;;;;3.55;1.65;;;;;;;19.72;90.11;101430.69;4950738;29;20079;-84
2023/09/29 11:21:19;;;;;;;6.65;1.88;;;;;;;19.74;89.71;101434.09;4946417;29;20086;-82